sensor_id;sensor_type;location;lat;lon;timestamp;pressure;altitude;pressure_sealevel;temperature;humidity
15558;BME280;7880;50.110;9.372;2024-02-21T00:01:14;6.453607559204102;;;6.375;100.0
15558;BME280;7880;50.110;9.372;2024-02-21T00:06:12;6.473775830212981;;;6.312;100.0
15558;BME280;7880;50.110;9.372;2024-02-21T00:11:15;6.473775830212981;;;6.312;100.0
15558;BME280;7880;50.110;9.372;2024-02-21T00:16:19;6.514112386200577;;;6.375;100.0
15558;BME280;7880;50.110;9.372;2024-02-21T00:21:25;6.4838599674636495;;;6.312;100.0
15558;BME280;7880;50.110;9.372;2024-02-21T00:26:36;6.372934521734715;;;6.25;100.0
15558;BME280;7880;50.110;9.372;2024-02-21T00:31:40;6.443523425445892;;;6.25;100.0
15558;BME280;7880;50.110;9.372;2024-02-21T00:36:47;6.448565492179478;;;6.25;100.0
15558;BME280;7880;50.110;9.372;2024-02-21T00:41:56;6.438481359003345;;;6.312;100.0
15558;BME280;7880;50.110;9.372;2024-02-21T00:47:16;6.4586496265197635;;;6.312;100.0
15558;BME280;7880;50.110;9.372;2024-02-21T00:52:08;6.4132710311561825;;;6.312;100.0
15558;BME280;7880;50.110;9.372;2024-02-21T00:57:15;6.337640091270441;;;6.25;100.0
15558;BME280;7880;50.110;9.372;2024-02-21T01:02:25;6.347724212805042;;;6.187;100.0
15558;BME280;7880;50.110;9.372;2024-02-21T01:07:35;6.25696716090315;;;6.187;100.0
15558;BME280;7880;50.110;9.372;2024-02-21T01:12:40;6.166210203297669;;;6.062;100.0
15558;BME280;7880;50.110;9.372;2024-02-21T01:17:43;6.206546617258573;;;6.062;100.0
15558;BME280;7880;50.110;9.372;2024-02-21T01:22:53;6.156126102717826;;;6.0;100.0
15558;BME280;7880;50.110;9.372;2024-02-21T01:27:57;6.146042003302137;;;6.0;100.0
15558;BME280;7880;50.110;9.372;2024-02-21T01:33:05;6.0956215236859865;;;6.0;100.0
15558;BME280;7880;50.110;9.372;2024-02-21T01:38:18;6.146042003302137;;;6.0;100.0
15558;BME280;7880;50.110;9.372;2024-02-21T01:43:20;6.140999954030849;;;6.0;100.0
15558;BME280;7880;50.110;9.372;2024-02-21T01:48:26;6.151084052864462;;;6.0;100.0
15558;BME280;7880;50.110;9.372;2024-02-21T01:53:34;6.075453339988599;;;5.937;100.0
15558;BME280;7880;50.110;9.372;2024-02-21T01:58:40;6.085537431255216;;;5.937;100.0
15558;BME280;7880;50.110;9.372;2024-02-21T02:03:46;6.110747664514929;;;6.0;100.0
15558;BME280;7880;50.110;9.372;2024-02-21T02:08:52;6.025032901117811;;;5.937;100.0
15558;BME280;7880;50.110;9.372;2024-02-21T02:14:17;6.0653692498861345;;;5.937;100.0
15558;BME280;7880;50.110;9.372;2024-02-21T02:19:16;6.1359579050506;;;6.0;100.0
15558;BME280;7880;50.110;9.372;2024-02-21T02:24:19;6.0956215236859865;;;5.937;100.0
15558;BME280;7880;50.110;9.372;2024-02-21T02:29:19;6.110747664514929;;;6.0;100.0
15558;BME280;7880;50.110;9.372;2024-02-21T02:34:24;6.166210203297669;;;6.0;100.0
15558;BME280;7880;50.110;9.372;2024-02-21T02:39:33;6.105705617280909;;;5.937;100.0
15558;BME280;7880;50.110;9.372;2024-02-21T02:44:37;6.090579477325082;;;6.0;100.0
15558;BME280;7880;50.110;9.372;2024-02-21T02:49:51;6.130915856361389;;;6.0;100.0
15558;BME280;7880;50.110;9.372;2024-02-21T02:54:52;6.009906775131822;;;5.937;100.0
15558;BME280;7880;50.110;9.372;2024-02-21T02:59:57;5.994780651765177;;;5.875;100.0
15558;BME280;7880;50.110;9.372;2024-02-21T03:05:12;6.035116986563662;;;5.875;100.0
15558;BME280;7880;50.110;9.372;2024-02-21T03:10:13;6.014948816836113;;;5.875;100.0
15558;BME280;7880;50.110;9.372;2024-02-21T03:15:18;6.075453339988599;;;5.937;100.0
15558;BME280;7880;50.110;9.372;2024-02-21T03:20:26;5.969570451974869;;;5.875;100.0
15558;BME280;7880;50.110;9.372;2024-02-21T03:25:33;5.843519562162692;;;5.75;100.0
15558;BME280;7880;50.110;9.372;2024-02-21T03:30:43;5.89393989625969;;;5.812;100.0
15558;BME280;7880;50.110;9.372;2024-02-21T03:35:52;5.873771759128431;;;5.75;100.0
15558;BME280;7880;50.110;9.372;2024-02-21T03:40:55;5.939318221830763;;;5.75;100.0
15558;BME280;7880;50.110;9.372;2024-02-21T03:46:05;5.8989819312701;;;5.75;100.0
15558;BME280;7880;50.110;9.372;2024-02-21T03:51:12;5.954444335593143;;;5.812;100.0
15558;BME280;7880;50.110;9.372;2024-02-21T03:56:14;5.934276184492046;;;5.812;100.0
15558;BME280;7880;50.110;9.372;2024-02-21T04:01:21;5.954444335593143;;;5.812;100.0
15558;BME280;7880;50.110;9.372;2024-02-21T04:06:28;6.035116986563662;;;5.875;100.0
15558;BME280;7880;50.110;9.372;2024-02-21T04:11:54;5.999822692596354;;;5.875;100.0
15558;BME280;7880;50.110;9.372;2024-02-21T04:16:41;6.030074943695217;;;5.875;100.0
15558;BME280;7880;50.110;9.372;2024-02-21T04:21:53;6.009906775131822;;;5.875;100.0
15558;BME280;7880;50.110;9.372;2024-02-21T04:26:53;6.025032901117811;;;5.875;100.0
15558;BME280;7880;50.110;9.372;2024-02-21T04:32:01;6.009906775131822;;;5.875;100.0
15558;BME280;7880;50.110;9.372;2024-02-21T04:37:07;5.974612491350854;;;5.875;100.0
15558;BME280;7880;50.110;9.372;2024-02-21T04:42:15;5.989738611225039;;;5.875;100.0
15558;BME280;7880;50.110;9.372;2024-02-21T04:46:42;5.984696570975939;;;5.812;100.0
15558;BME280;7880;50.110;9.372;2024-02-21T04:51:47;5.904023966571549;;;5.812;100.0
15558;BME280;7880;50.110;9.372;2024-02-21T04:56:55;5.883855827111984;;;5.75;100.0
15558;BME280;7880;50.110;9.372;2024-02-21T05:02:02;5.823351436672965;;;5.687;100.0
15558;BME280;7880;50.110;9.372;2024-02-21T05:07:11;5.823351436672965;;;5.687;100.0
15558;BME280;7880;50.110;9.372;2024-02-21T05:12:17;5.873771759128431;;;5.687;100.0
15558;BME280;7880;50.110;9.372;2024-02-21T05:17:21;5.757805060991086;;;5.687;100.0
15558;BME280;7880;50.110;9.372;2024-02-21T05:22:27;5.7779731713468205;;;5.625;100.0
15558;BME280;7880;50.110;9.372;2024-02-21T05:27:36;5.823351436672965;;;5.687;100.0
15558;BME280;7880;50.110;9.372;2024-02-21T05:32:41;5.757805060991086;;;5.625;100.0
15558;BME280;7880;50.110;9.372;2024-02-21T05:37:53;5.7073848054744305;;;5.625;100.0
15558;BME280;7880;50.110;9.372;2024-02-21T05:42:53;5.793099257169525;;;5.625;100.0
15558;BME280;7880;50.110;9.372;2024-02-21T05:48:01;5.717468854249455;;;5.625;100.0
15558;BME280;7880;50.110;9.372;2024-02-21T05:53:08;5.762847088143462;;;5.625;100.0
15558;BME280;7880;50.110;9.372;2024-02-21T05:58:35;5.7830151996633505;;;5.625;100.0
15558;BME280;7880;50.110;9.372;2024-02-21T06:03:34;5.722510879073525;;;5.625;100.0
15558;BME280;7880;50.110;9.372;2024-02-21T06:08:27;5.7426789812801875;;;5.625;100.0
15558;BME280;7880;50.110;9.372;2024-02-21T06:13:38;5.727552904188633;;;5.625;100.0
15558;BME280;7880;50.110;9.372;2024-02-21T06:18:41;5.677132666134275;;;5.562;100.0
15558;BME280;7880;50.110;9.372;2024-02-21T06:23:50;5.677132666134275;;;5.562;100.0
15558;BME280;7880;50.110;9.372;2024-02-21T06:29:02;5.722510879073525;;;5.562;100.0
15558;BME280;7880;50.110;9.372;2024-02-21T06:34:00;5.6216704378894065;;;5.562;100.0
15558;BME280;7880;50.110;9.372;2024-02-21T06:39:08;5.7477210075594485;;;5.562;100.0
15558;BME280;7880;50.110;9.372;2024-02-21T06:44:15;5.656964579061605;;;5.562;100.0
15558;BME280;7880;50.110;9.372;2024-02-21T06:49:25;5.73259492959478;;;5.562;100.0
15558;BME280;7880;50.110;9.372;2024-02-21T06:54:26;5.677132666134275;;;5.562;100.0
15558;BME280;7880;50.110;9.372;2024-02-21T06:59:42;5.651922558021033;;;5.562;100.0
15558;BME280;7880;50.110;9.372;2024-02-21T07:04:36;5.68721671141684;;;5.562;100.0
15558;BME280;7880;50.110;9.372;2024-02-21T07:09:43;5.752763034129748;;;5.562;100.0
15558;BME280;7880;50.110;9.372;2024-02-21T07:14:50;5.798141286359169;;;5.625;100.0
15558;BME280;7880;50.110;9.372;2024-02-21T07:19:59;5.7830151996633505;;;5.625;100.0
15558;BME280;7880;50.110;9.372;2024-02-21T07:25:04;5.793099257169525;;;5.625;100.0
15558;BME280;7880;50.110;9.372;2024-02-21T07:30:10;5.863687692309031;;;5.687;100.0
15558;BME280;7880;50.110;9.372;2024-02-21T07:35:16;5.863687692309031;;;5.687;100.0
15558;BME280;7880;50.110;9.372;2024-02-21T07:40:27;5.848561594262719;;;5.625;100.0
15558;BME280;7880;50.110;9.372;2024-02-21T07:45:29;5.959486374096014;;;5.75;100.0
15558;BME280;7880;50.110;9.372;2024-02-21T07:50:35;6.1157897120399864;;;5.875;100.0
15558;BME280;7880;50.110;9.372;2024-02-21T07:55:47;6.176294305041665;;;5.875;100.0
15558;BME280;7880;50.110;9.372;2024-02-21T08:00:48;6.146042003302137;;;6.0;100.0
15558;BME280;7880;50.110;9.372;2024-02-21T08:06:03;6.075453339988599;;;5.937;100.0
15558;BME280;7880;50.110;9.372;2024-02-21T08:11:02;6.166210203297669;;;6.0;100.0
15558;BME280;7880;50.110;9.372;2024-02-21T08:16:08;6.226714831223944;;;6.062;100.0
15558;BME280;7880;50.110;9.372;2024-02-21T08:21:29;6.176294305041665;;;6.062;100.0
15558;BME280;7880;50.110;9.372;2024-02-21T08:26:23;6.0956215236859865;;;6.0;100.0
15558;BME280;7880;50.110;9.372;2024-02-21T08:31:31;6.085537431255216;;;6.0;100.0
15558;BME280;7880;50.110;9.372;2024-02-21T08:36:39;6.156126102717826;;;6.0;100.0
15558;BME280;7880;50.110;9.372;2024-02-21T08:41:44;6.161168152862229;;;6.062;100.0
15558;BME280;7880;50.110;9.372;2024-02-21T08:46:52;6.1914204598404465;;;6.062;100.0
15558;BME280;7880;50.110;9.372;2024-02-21T08:51:57;6.408228966459864;;;6.25;100.0
15558;BME280;7880;50.110;9.372;2024-02-21T08:57:05;6.277135386510054;;;6.187;100.0
15558;BME280;7880;50.110;9.372;2024-02-21T09:02:12;6.478817898692796;;;6.25;100.0
15558;BME280;7880;50.110;9.372;2024-02-21T09:07:20;6.287219501059735;;;6.187;100.0
15558;BME280;7880;50.110;9.372;2024-02-21T09:12:35;6.443523425445892;;;6.25;100.0
15558;BME280;7880;50.110;9.372;2024-02-21T09:17:35;6.29730361677357;;;6.25;100.0
15558;BME280;7880;50.110;9.372;2024-02-21T09:22:43;6.534280671179294;;;6.312;100.0
15558;BME280;7880;50.110;9.372;2024-02-21T09:27:48;6.619995934289181;;;6.5;100.0
15558;BME280;7880;50.110;9.372;2024-02-21T09:33:05;6.7510900287947155;;;6.5;100.0
15558;BME280;7880;50.110;9.372;2024-02-21T09:38:03;6.6502484001743145;;;6.562;100.0
15558;BME280;7880;50.110;9.372;2024-02-21T09:43:07;6.665374637045898;;;6.5;100.0
15558;BME280;7880;50.110;9.372;2024-02-21T09:48:28;6.574617255106569;;;6.5;100.0
15558;BME280;7880;50.110;9.372;2024-02-21T09:52:57;6.77630045413971;;;6.562;100.0
15558;BME280;7880;50.110;9.372;2024-02-21T09:58:02;6.710753363376716;;;6.625;100.0
15558;BME280;7880;50.110;9.372;2024-02-21T10:03:08;6.882184320042143;;;6.687;100.0
15558;BME280;7880;50.110;9.372;2024-02-21T10:08:14;6.862015954736853;;;6.687;100.0
15558;BME280;7880;50.110;9.372;2024-02-21T10:13:26;6.977984118834138;;;6.75;100.0
15558;BME280;7880;50.110;9.372;2024-02-21T10:18:26;7.008236708701588;;;6.812;100.0
15558;BME280;7880;50.110;9.372;2024-02-21T10:23:43;6.9275631590047855;;;6.812;100.0
15558;BME280;7880;50.110;9.372;2024-02-21T10:28:42;6.932605253678048;;;6.812;100.0
15558;BME280;7880;50.110;9.372;2024-02-21T10:33:53;7.073784022690961;;;6.875;100.0
15558;BME280;7880;50.110;9.372;2024-02-21T10:38:54;7.2855526040366385;;;7.062;100.0
15558;BME280;7880;50.110;9.372;2024-02-21T10:44:05;7.51749021076248;;;7.437;100.0
15558;BME280;7880;50.110;9.372;2024-02-21T10:49:13;7.431774066970684;;;7.312;100.0
15558;BME280;7880;50.110;9.372;2024-02-21T10:54:39;7.58808003939339;;;7.312;100.0
15558;BME280;7880;50.110;9.372;2024-02-21T10:59:22;7.451942563825287;;;7.25;100.0
15558;BME280;7880;50.110;9.372;2024-02-21T11:04:31;7.406563452450792;;;7.25;100.0
15558;BME280;7880;50.110;9.372;2024-02-21T11:09:37;7.522532339487225;;;7.312;100.0
15558;BME280;7880;50.110;9.372;2024-02-21T11:14:46;7.668754199106479;;;7.437;100.0
15558;BME280;7880;50.110;9.372;2024-02-21T11:19:48;7.633459245064296;;;7.562;100.0
15558;BME280;7880;50.110;9.372;2024-02-21T11:25:06;7.855313478806056;;;7.687;100.0
15558;BME280;7880;50.110;9.372;2024-02-21T11:30:05;7.759512717841426;;;7.625;100.0
15558;BME280;7880;50.110;9.372;2024-02-21T11:35:19;7.840187035879353;;;7.687;100.0
15558;BME280;7880;50.110;9.372;2024-02-21T11:40:16;8.067083954811096;;;7.812;100.0
15558;BME280;7880;50.110;9.372;2024-02-21T11:45:27;8.22339106402942;;;8.0;100.0
15558;BME280;7880;50.110;9.372;2024-02-21T11:50:30;8.324234508728841;;;8.125;100.0
15558;BME280;7880;50.110;9.372;2024-02-21T11:55:37;8.334318859601627;;;8.125;100.0
15558;BME280;7880;50.110;9.372;2024-02-21T12:00:44;8.334318859601627;;;8.25;100.0
15558;BME280;7880;50.110;9.372;2024-02-21T12:05:53;8.15280072200694;;;8.062;100.0
15558;BME280;7880;50.110;9.372;2024-02-21T12:10:58;8.183053718745942;;;8.0;100.0
15558;BME280;7880;50.110;9.372;2024-02-21T12:16:06;8.293981463095406;;;8.062;100.0
15558;BME280;7880;50.110;9.372;2024-02-21T12:21:15;8.183053718745942;;;8.062;100.0
15558;BME280;7880;50.110;9.372;2024-02-21T12:26:22;8.137674227566459;;;8.0;100.0
15558;BME280;7880;50.110;9.372;2024-02-21T12:31:24;8.238517573312857;;;8.062;100.0
15558;BME280;7880;50.110;9.372;2024-02-21T12:36:36;8.40490934830741;;;8.187;100.0
15558;BME280;7880;50.110;9.372;2024-02-21T12:41:39;8.354487564839655;;;8.25;100.0
15558;BME280;7880;50.110;9.372;2024-02-21T12:46:44;8.3645719192049;;;8.25;100.0
15558;BME280;7880;50.110;9.372;2024-02-21T12:51:50;8.394824989285553;;;8.25;100.0
15558;BME280;7880;50.110;9.372;2024-02-21T12:56:57;8.510795188322664;;;8.375;100.0
15558;BME280;7880;50.110;9.372;2024-02-21T13:02:06;8.697356266347924;;;8.5;100.0
15558;BME280;7880;50.110;9.372;2024-02-21T13:07:14;8.606596773216733;;;8.437;100.0
15558;BME280;7880;50.110;9.372;2024-02-21T13:12:15;8.651976507995277;;;8.437;100.0
15558;BME280;7880;50.110;9.372;2024-02-21T13:17:22;8.949466464255238;;;8.687;100.0
15558;BME280;7880;50.110;9.372;2024-02-21T13:22:29;8.828453478455776;;;8.75;100.0
15558;BME280;7880;50.110;9.372;2024-02-21T13:27:36;8.747778247721726;;;8.625;100.0
15558;BME280;7880;50.110;9.372;2024-02-21T13:32:46;8.76794704842032;;;8.625;100.0
15558;BME280;7880;50.110;9.372;2024-02-21T13:37:51;8.863748915330508;;;8.687;100.0
15558;BME280;7880;50.110;9.372;2024-02-21T13:43:01;8.73769384911866;;;8.625;100.0
15558;BME280;7880;50.110;9.372;2024-02-21T13:48:07;8.853664503339678;;;8.687;100.0
15558;BME280;7880;50.110;9.372;2024-02-21T13:53:12;8.717525055404986;;;8.625;100.0
15558;BME280;7880;50.110;9.372;2024-02-21T13:58:21;8.894002158287913;;;8.687;100.0
15558;BME280;7880;50.110;9.372;2024-02-21T14:03:26;8.838537887536223;;;8.687;100.0
15558;BME280;7880;50.110;9.372;2024-02-21T14:08:34;8.88895995040075;;;8.75;100.0
15558;BME280;7880;50.110;9.372;2024-02-21T14:13:39;8.924255411722697;;;8.75;100.0
15558;BME280;7880;50.110;9.372;2024-02-21T14:18:46;8.919213202089304;;;8.75;100.0
15558;BME280;7880;50.110;9.372;2024-02-21T14:23:50;8.964593099267223;;;8.75;100.0
15558;BME280;7880;50.110;9.372;2024-02-21T14:29:03;8.823411274352111;;;8.687;100.0
15558;BME280;7880;50.110;9.372;2024-02-21T14:34:03;8.697356266347924;;;8.625;100.0
15558;BME280;7880;50.110;9.372;2024-02-21T14:39:10;8.798200258199358;;;8.562;100.0
15558;BME280;7880;50.110;9.372;2024-02-21T14:44:17;8.838537887536223;;;8.625;100.0
15558;BME280;7880;50.110;9.372;2024-02-21T14:49:25;8.873833328485489;;;8.687;100.0
15558;BME280;7880;50.110;9.372;2024-02-21T14:54:32;8.95450867563486;;;8.75;100.0
15558;BME280;7880;50.110;9.372;2024-02-21T14:59:05;8.757862647488945;;;8.625;100.0
15558;BME280;7880;50.110;9.372;2024-02-21T15:04:09;8.88895995040075;;;8.75;100.0
15558;BME280;7880;50.110;9.372;2024-02-21T15:09:16;8.904086574935354;;;8.75;100.0
15558;BME280;7880;50.110;9.372;2024-02-21T15:14:25;8.95450867563486;;;8.812;100.0
15558;BME280;7880;50.110;9.372;2024-02-21T15:19:33;8.828453478455776;;;8.75;100.0
15558;BME280;7880;50.110;9.372;2024-02-21T15:24:37;9.287295270175672;;;9.0;100.0
15558;BME280;7880;50.110;9.372;2024-02-21T15:29:45;8.873833328485489;;;8.75;100.0
15558;BME280;7880;50.110;9.372;2024-02-21T15:34:56;8.848622297780821;;;8.75;100.0
15558;BME280;7880;50.110;9.372;2024-02-21T15:39:58;8.858706709189573;;;8.75;100.0
15558;BME280;7880;50.110;9.372;2024-02-21T15:45:10;8.752820447459817;;;8.687;100.0
15558;BME280;7880;50.110;9.372;2024-02-21T15:50:15;8.752820447459817;;;8.625;100.0
15558;BME280;7880;50.110;9.372;2024-02-21T15:55:20;8.772989249322563;;;8.625;100.0
15558;BME280;7880;50.110;9.372;2024-02-21T16:00:24;8.742736048274674;;;8.625;100.0
15558;BME280;7880;50.110;9.372;2024-02-21T16:05:30;8.692314069811255;;;8.562;100.0
15558;BME280;7880;50.110;9.372;2024-02-21T16:10:37;8.611638964805753;;;8.437;100.0
15558;BME280;7880;50.110;9.372;2024-02-21T16:15:45;8.596512390911812;;;8.437;100.0
15558;BME280;7880;50.110;9.372;2024-02-21T16:20:51;8.586428009771044;;;8.437;100.0
15558;BME280;7880;50.110;9.372;2024-02-21T16:26:04;8.420035889022984;;;8.375;100.0
15558;BME280;7880;50.110;9.372;2024-02-21T16:31:06;8.495668631891022;;;8.375;100.0
15558;BME280;7880;50.110;9.372;2024-02-21T16:36:20;8.409951528254897;;;8.312;100.0
15558;BME280;7880;50.110;9.372;2024-02-21T16:41:20;8.309107984602452;;;8.25;100.0
15558;BME280;7880;50.110;9.372;2024-02-21T16:46:28;8.283897116879235;;;8.187;100.0
15558;BME280;7880;50.110;9.372;2024-02-21T16:51:36;8.243559743656078;;;8.187;100.0
15558;BME280;7880;50.110;9.372;2024-02-21T16:56:43;8.15280072200694;;;8.125;100.0
15558;BME280;7880;50.110;9.372;2024-02-21T17:01:51;8.132632063335041;;;8.062;100.0
15558;BME280;7880;50.110;9.372;2024-02-21T17:06:57;8.162885053089122;;;8.062;100.0
15558;BME280;7880;50.110;9.372;2024-02-21T17:12:07;8.051957475213566;;;7.937;100.0
15558;BME280;7880;50.110;9.372;2024-02-21T17:17:13;7.951114344835514;;;7.875;100.0
15558;BME280;7880;50.110;9.372;2024-02-21T17:22:19;7.920861428423086;;;7.812;100.0
15558;BME280;7880;50.110;9.372;2024-02-21T17:27:33;7.930945732729742;;;7.812;100.0
15558;BME280;7880;50.110;9.372;2024-02-21T17:32:29;7.799849867547164;;;7.687;100.0
15558;BME280;7880;50.110;9.372;2024-02-21T17:37:35;7.658669925067807;;;7.562;100.0
15558;BME280;7880;50.110;9.372;2024-02-21T17:42:42;7.7242177271284165;;;7.625;100.0
15558;BME280;7880;50.110;9.372;2024-02-21T17:47:57;7.633459245064296;;;7.625;100.0
15558;BME280;7880;50.110;9.372;2024-02-21T17:53:04;7.638501380482921;;;7.562;100.0
15558;BME280;7880;50.110;9.372;2024-02-21T17:58:03;7.699007028207416;;;7.625;100.0
15558;BME280;7880;50.110;9.372;2024-02-21T18:03:11;7.618332840554649;;;7.562;100.0
15558;BME280;7880;50.110;9.372;2024-02-21T18:08:18;7.5830379068851474;;;7.5;100.0
15558;BME280;7880;50.110;9.372;2024-02-21T18:13:27;7.472111065336503;;;7.437;100.0
15558;BME280;7880;50.110;9.372;2024-02-21T18:18:33;7.477153191441903;;;7.437;100.0
15558;BME280;7880;50.110;9.372;2024-02-21T18:23:40;7.3611843646503985;;;7.375;100.0
15558;BME280;7880;50.110;9.372;2024-02-21T18:28:46;7.265384145599091;;;7.312;100.0
15558;BME280;7880;50.110;9.372;2024-02-21T18:33:57;7.204878798226128;;;7.187;100.0
15558;BME280;7880;50.110;9.372;2024-02-21T18:38:59;7.225047242693836;;;7.125;100.0
15558;BME280;7880;50.110;9.372;2024-02-21T18:44:08;7.300678950920701;;;7.187;100.0
15558;BME280;7880;50.110;9.372;2024-02-21T18:49:12;7.290594719373621;;;7.187;100.0
15558;BME280;7880;50.110;9.372;2024-02-21T18:54:18;7.194794577738503;;;7.125;100.0
15558;BME280;7880;50.110;9.372;2024-02-21T18:59:25;7.129247172945179;;;7.062;100.0
15558;BME280;7880;50.110;9.372;2024-02-21T19:04:32;7.396479208680103;;;7.25;100.0
15558;BME280;7880;50.110;9.372;2024-02-21T19:09:41;7.537658727407688;;;7.375;100.0
15558;BME280;7880;50.110;9.372;2024-02-21T19:14:45;7.613290706300177;;;7.5;100.0
15558;BME280;7880;50.110;9.372;2024-02-21T19:19:52;7.51749021076248;;;7.437;100.0
15558;BME280;7880;50.110;9.372;2024-02-21T19:25:03;7.421689820289612;;;7.312;100.0
15558;BME280;7880;50.110;9.372;2024-02-21T19:30:08;7.230089354538359;;;7.187;100.0
15558;BME280;7880;50.110;9.372;2024-02-21T19:35:17;7.3763107246311845;;;7.187;100.0
15558;BME280;7880;50.110;9.372;2024-02-21T19:40:20;7.098994541168213;;;7.062;100.0
15558;BME280;7880;50.110;9.372;2024-02-21T19:45:29;7.295636835001642;;;7.125;100.0
15558;BME280;7880;50.110;9.372;2024-02-21T19:50:45;7.124205066921422;;;7.0;100.0
15558;BME280;7880;50.110;9.372;2024-02-21T19:55:39;7.184710358415032;;;7.062;100.0
15558;BME280;7880;50.110;9.372;2024-02-21T20:00:46;7.3359737705031876;;;7.187;100.0
15558;BME280;7880;50.110;9.372;2024-02-21T20:05:15;7.35614224523888;;;7.187;100.0
15558;BME280;7880;50.110;9.372;2024-02-21T20:10:22;7.3611843646503985;;;7.187;100.0
15558;BME280;7880;50.110;9.372;2024-02-21T20:15:29;7.154457707429538;;;7.062;100.0
15558;BME280;7880;50.110;9.372;2024-02-21T20:20:43;7.406563452450792;;;7.187;100.0
15558;BME280;7880;50.110;9.372;2024-02-21T20:25:43;7.5275744685030075;;;7.375;100.0
15558;BME280;7880;50.110;9.372;2024-02-21T20:30:50;7.7746391467982905;;;7.625;100.0
15558;BME280;7880;50.110;9.372;2024-02-21T20:35:58;7.845229183230549;;;7.75;100.0
15558;BME280;7880;50.110;9.372;2024-02-21T20:41:15;8.183053718745942;;;8.125;100.0
15558;BME280;7880;50.110;9.372;2024-02-21T20:46:14;8.162885053089122;;;8.125;100.0
15558;BME280;7880;50.110;9.372;2024-02-21T20:51:22;8.12758989939466;;;8.062;100.0
15558;BME280;7880;50.110;9.372;2024-02-21T20:56:32;8.172969385335454;;;8.125;100.0
15558;BME280;7880;50.110;9.372;2024-02-21T21:01:36;8.016662366339006;;;8.0;100.0
15558;BME280;7880;50.110;9.372;2024-02-21T21:06:51;7.946072191372513;;;7.875;100.0
15558;BME280;7880;50.110;9.372;2024-02-21T21:11:55;7.799849867547164;;;7.812;100.0
15558;BME280;7880;50.110;9.372;2024-02-21T21:16:56;7.628417109936708;;;7.625;100.0
15558;BME280;7880;50.110;9.372;2024-02-21T21:22:06;7.59312217219267;;;7.5;100.0
15558;BME280;7880;50.110;9.372;2024-02-21T21:27:14;7.5830379068851474;;;7.5;100.0
15558;BME280;7880;50.110;9.372;2024-02-21T21:32:19;7.497321698773885;;;7.375;100.0
15558;BME280;7880;50.110;9.372;2024-02-21T21:37:24;7.421689820289612;;;7.312;100.0
15558;BME280;7880;50.110;9.372;2024-02-21T21:42:32;7.23513146667392;;;7.125;100.0
15558;BME280;7880;50.110;9.372;2024-02-21T21:47:46;7.114120855747023;;;7.062;100.0
15558;BME280;7880;50.110;9.372;2024-02-21T21:52:50;7.114120855747023;;;7.0;100.0
15558;BME280;7880;50.110;9.372;2024-02-21T21:57:52;6.967899924539961;;;6.937;100.0
15558;BME280;7880;50.110;9.372;2024-02-21T22:02:57;7.018320907652378;;;6.875;100.0
15558;BME280;7880;50.110;9.372;2024-02-21T22:08:06;7.068741919868626;;;6.875;100.0
15558;BME280;7880;50.110;9.372;2024-02-21T22:13:11;7.068741919868626;;;6.875;100.0
15558;BME280;7880;50.110;9.372;2024-02-21T22:18:17;6.952773635281483;;;6.875;100.0
15558;BME280;7880;50.110;9.372;2024-02-21T22:23:23;6.897310597077012;;;6.812;100.0
15558;BME280;7880;50.110;9.372;2024-02-21T22:28:30;7.003194609662751;;;6.875;100.0
15558;BME280;7880;50.110;9.372;2024-02-21T22:33:57;7.03344720826135;;;6.812;100.0
15558;BME280;7880;50.110;9.372;2024-02-21T22:38:43;7.008236708701588;;;6.875;100.0
15558;BME280;7880;50.110;9.372;2024-02-21T22:43:49;6.9628578278294295;;;6.875;100.0
15558;BME280;7880;50.110;9.372;2024-02-21T22:48:54;6.917478970531374;;;6.812;100.0
15558;BME280;7880;50.110;9.372;2024-02-21T22:54:01;7.043531410122523;;;6.875;100.0
15558;BME280;7880;50.110;9.372;2024-02-21T22:59:12;6.952773635281483;;;6.875;100.0
15558;BME280;7880;50.110;9.372;2024-02-21T23:04:16;6.97294202154153;;;6.812;100.0
15558;BME280;7880;50.110;9.372;2024-02-21T23:09:45;6.932605253678048;;;6.812;100.0
15558;BME280;7880;50.110;9.372;2024-02-21T23:14:31;6.988068314292468;;;6.875;100.0
15558;BME280;7880;50.110;9.372;2024-02-21T23:19:39;6.967899924539961;;;6.812;100.0
15558;BME280;7880;50.110;9.372;2024-02-21T23:24:47;6.988068314292468;;;6.875;100.0
15558;BME280;7880;50.110;9.372;2024-02-21T23:29:52;7.073784022690961;;;6.812;100.0
15558;BME280;7880;50.110;9.372;2024-02-21T23:34:59;7.02336300756433;;;6.812;100.0
15558;BME280;7880;50.110;9.372;2024-02-21T23:40:09;7.083868229208747;;;6.875;100.0
15558;BME280;7880;50.110;9.372;2024-02-21T23:45:13;6.993110412458191;;;6.812;100.0
15558;BME280;7880;50.110;9.372;2024-02-21T23:50:23;7.048573511489667;;;6.875;100.0
15558;BME280;7880;50.110;9.372;2024-02-21T23:55:27;6.9628578278294295;;;6.812;100.0
